sensor_id;sensor_type;location;lat;lon;timestamp;P1;durP1;ratioP1;P2;durP2;ratioP2
57327;SDS011;43162;51.040;18.244;2023-02-03T00:01:46;3.80;;;1.00;;
57327;SDS011;43162;51.040;18.244;2023-02-03T00:04:12;2.30;;;1.20;;
57327;SDS011;43162;51.040;18.244;2023-02-03T00:06:37;5.80;;;0.70;;
57327;SDS011;43162;51.040;18.244;2023-02-03T00:09:03;1.50;;;0.60;;
57327;SDS011;43162;51.040;18.244;2023-02-03T00:11:29;0.70;;;0.50;;
57327;SDS011;43162;51.040;18.244;2023-02-03T00:13:55;3.90;;;0.90;;
57327;SDS011;43162;51.040;18.244;2023-02-03T00:16:20;1.50;;;0.40;;
57327;SDS011;43162;51.040;18.244;2023-02-03T00:18:46;2.70;;;1.00;;
57327;SDS011;43162;51.040;18.244;2023-02-03T00:21:11;0.30;;;0.30;;
57327;SDS011;43162;51.040;18.244;2023-02-03T00:23:42;3.20;;;0.60;;
57327;SDS011;43162;51.040;18.244;2023-02-03T00:26:09;1.20;;;0.60;;
57327;SDS011;43162;51.040;18.244;2023-02-03T00:28:35;1.30;;;0.60;;
57327;SDS011;43162;51.040;18.244;2023-02-03T00:31:00;4.20;;;0.80;;
57327;SDS011;43162;51.040;18.244;2023-02-03T00:33:26;1.70;;;0.50;;
57327;SDS011;43162;51.040;18.244;2023-02-03T00:35:51;1.40;;;0.80;;
57327;SDS011;43162;51.040;18.244;2023-02-03T00:38:17;3.00;;;1.00;;
57327;SDS011;43162;51.040;18.244;2023-02-03T00:40:50;0.80;;;0.60;;
57327;SDS011;43162;51.040;18.244;2023-02-03T00:43:15;4.90;;;1.50;;
57327;SDS011;43162;51.040;18.244;2023-02-03T00:45:41;5.20;;;1.90;;
57327;SDS011;43162;51.040;18.244;2023-02-03T00:48:06;1.50;;;1.20;;
57327;SDS011;43162;51.040;18.244;2023-02-03T00:50:32;6.40;;;1.40;;
57327;SDS011;43162;51.040;18.244;2023-02-03T00:52:57;2.30;;;0.70;;
57327;SDS011;43162;51.040;18.244;2023-02-03T00:55:23;2.20;;;1.30;;
57327;SDS011;43162;51.040;18.244;2023-02-03T00:57:48;2.10;;;0.60;;
57327;SDS011;43162;51.040;18.244;2023-02-03T01:00:14;2.20;;;0.90;;
57327;SDS011;43162;51.040;18.244;2023-02-03T01:02:40;4.40;;;1.20;;
57327;SDS011;43162;51.040;18.244;2023-02-03T01:05:06;4.80;;;0.90;;
57327;SDS011;43162;51.040;18.244;2023-02-03T01:07:31;4.40;;;1.10;;
57327;SDS011;43162;51.040;18.244;2023-02-03T01:09:57;2.20;;;0.90;;
57327;SDS011;43162;51.040;18.244;2023-02-03T01:12:23;9.40;;;1.20;;
57327;SDS011;43162;51.040;18.244;2023-02-03T01:14:48;2.60;;;1.60;;
57327;SDS011;43162;51.040;18.244;2023-02-03T01:17:14;2.30;;;1.20;;
57327;SDS011;43162;51.040;18.244;2023-02-03T01:19:39;7.90;;;1.60;;
57327;SDS011;43162;51.040;18.244;2023-02-03T01:22:05;4.70;;;1.80;;
57327;SDS011;43162;51.040;18.244;2023-02-03T01:24:30;4.90;;;2.00;;
57327;SDS011;43162;51.040;18.244;2023-02-03T01:26:56;5.40;;;2.40;;
57327;SDS011;43162;51.040;18.244;2023-02-03T01:29:28;3.20;;;0.90;;
57327;SDS011;43162;51.040;18.244;2023-02-03T01:32:04;3.80;;;1.10;;
57327;SDS011;43162;51.040;18.244;2023-02-03T01:34:29;5.10;;;1.50;;
57327;SDS011;43162;51.040;18.244;2023-02-03T01:36:55;8.70;;;1.60;;
57327;SDS011;43162;51.040;18.244;2023-02-03T01:39:21;6.50;;;1.60;;
57327;SDS011;43162;51.040;18.244;2023-02-03T01:41:46;7.30;;;2.20;;
57327;SDS011;43162;51.040;18.244;2023-02-03T01:46:56;4.80;;;2.10;;
57327;SDS011;43162;51.040;18.244;2023-02-03T01:49:23;8.80;;;2.80;;
57327;SDS011;43162;51.040;18.244;2023-02-03T01:51:51;7.90;;;3.40;;
57327;SDS011;43162;51.040;18.244;2023-02-03T01:54:18;8.10;;;3.30;;
57327;SDS011;43162;51.040;18.244;2023-02-03T01:56:47;10.50;;;3.10;;
57327;SDS011;43162;51.040;18.244;2023-02-03T01:59:14;6.10;;;2.30;;
57327;SDS011;43162;51.040;18.244;2023-02-03T02:01:40;6.20;;;2.40;;
57327;SDS011;43162;51.040;18.244;2023-02-03T02:04:05;5.90;;;2.30;;
57327;SDS011;43162;51.040;18.244;2023-02-03T02:06:32;5.90;;;2.00;;
57327;SDS011;43162;51.040;18.244;2023-02-03T02:08:58;4.20;;;2.20;;
57327;SDS011;43162;51.040;18.244;2023-02-03T02:11:25;6.30;;;2.50;;
57327;SDS011;43162;51.040;18.244;2023-02-03T02:13:51;5.60;;;2.10;;
57327;SDS011;43162;51.040;18.244;2023-02-03T02:21:38;6.00;;;2.80;;
57327;SDS011;43162;51.040;18.244;2023-02-03T02:30:10;6.80;;;2.40;;
57327;SDS011;43162;51.040;18.244;2023-02-03T02:42:55;6.20;;;2.50;;
57327;SDS011;43162;51.040;18.244;2023-02-03T02:45:26;7.60;;;3.10;;
57327;SDS011;43162;51.040;18.244;2023-02-03T02:47:55;4.90;;;2.60;;
57327;SDS011;43162;51.040;18.244;2023-02-03T02:50:22;3.60;;;2.10;;
57327;SDS011;43162;51.040;18.244;2023-02-03T02:52:50;5.60;;;2.00;;
57327;SDS011;43162;51.040;18.244;2023-02-03T02:55:21;7.60;;;2.90;;
57327;SDS011;43162;51.040;18.244;2023-02-03T02:57:49;9.60;;;2.60;;
57327;SDS011;43162;51.040;18.244;2023-02-03T03:00:16;7.80;;;2.70;;
57327;SDS011;43162;51.040;18.244;2023-02-03T03:02:41;5.40;;;2.50;;
57327;SDS011;43162;51.040;18.244;2023-02-03T03:05:07;4.50;;;1.90;;
57327;SDS011;43162;51.040;18.244;2023-02-03T03:07:35;8.30;;;2.30;;
57327;SDS011;43162;51.040;18.244;2023-02-03T03:10:04;5.30;;;2.40;;
57327;SDS011;43162;51.040;18.244;2023-02-03T03:12:35;9.70;;;2.60;;
57327;SDS011;43162;51.040;18.244;2023-02-03T03:15:03;7.50;;;3.40;;
57327;SDS011;43162;51.040;18.244;2023-02-03T03:17:30;7.90;;;3.10;;
57327;SDS011;43162;51.040;18.244;2023-02-03T03:19:58;6.00;;;2.80;;
57327;SDS011;43162;51.040;18.244;2023-02-03T03:22:30;5.10;;;2.20;;
57327;SDS011;43162;51.040;18.244;2023-02-03T03:25:00;8.70;;;3.40;;
57327;SDS011;43162;51.040;18.244;2023-02-03T03:27:32;9.20;;;4.30;;
57327;SDS011;43162;51.040;18.244;2023-02-03T03:30:04;7.90;;;4.80;;
57327;SDS011;43162;51.040;18.244;2023-02-03T03:32:30;11.10;;;4.90;;
57327;SDS011;43162;51.040;18.244;2023-02-03T03:34:57;10.70;;;4.90;;
57327;SDS011;43162;51.040;18.244;2023-02-03T03:37:27;7.20;;;3.80;;
57327;SDS011;43162;51.040;18.244;2023-02-03T03:42:43;6.70;;;3.40;;
57327;SDS011;43162;51.040;18.244;2023-02-03T03:45:16;9.60;;;3.70;;
57327;SDS011;43162;51.040;18.244;2023-02-03T03:50:09;6.90;;;3.60;;
57327;SDS011;43162;51.040;18.244;2023-02-03T03:52:35;8.20;;;4.40;;
57327;SDS011;43162;51.040;18.244;2023-02-03T03:55:02;9.90;;;4.10;;
57327;SDS011;43162;51.040;18.244;2023-02-03T03:57:35;8.70;;;4.00;;
57327;SDS011;43162;51.040;18.244;2023-02-03T04:00:03;7.20;;;4.60;;
57327;SDS011;43162;51.040;18.244;2023-02-03T04:02:31;12.10;;;4.90;;
57327;SDS011;43162;51.040;18.244;2023-02-03T04:04:58;10.50;;;6.00;;
57327;SDS011;43162;51.040;18.244;2023-02-03T04:07:35;15.60;;;7.20;;
57327;SDS011;43162;51.040;18.244;2023-02-03T04:10:02;12.20;;;7.30;;
57327;SDS011;43162;51.040;18.244;2023-02-03T04:12:28;13.30;;;7.30;;
57327;SDS011;43162;51.040;18.244;2023-02-03T04:14:54;17.60;;;9.80;;
57327;SDS011;43162;51.040;18.244;2023-02-03T04:17:19;16.70;;;9.50;;
57327;SDS011;43162;51.040;18.244;2023-02-03T04:19:49;18.40;;;9.10;;
57327;SDS011;43162;51.040;18.244;2023-02-03T04:22:15;18.90;;;9.30;;
57327;SDS011;43162;51.040;18.244;2023-02-03T04:24:40;20.80;;;9.90;;
57327;SDS011;43162;51.040;18.244;2023-02-03T04:27:06;17.60;;;9.40;;
57327;SDS011;43162;51.040;18.244;2023-02-03T04:29:31;16.80;;;9.00;;
57327;SDS011;43162;51.040;18.244;2023-02-03T04:31:57;18.10;;;9.10;;
57327;SDS011;43162;51.040;18.244;2023-02-03T04:34:22;16.80;;;8.80;;
57327;SDS011;43162;51.040;18.244;2023-02-03T04:36:48;12.50;;;7.40;;
57327;SDS011;43162;51.040;18.244;2023-02-03T04:39:13;10.70;;;5.70;;
57327;SDS011;43162;51.040;18.244;2023-02-03T04:41:39;16.30;;;5.70;;
57327;SDS011;43162;51.040;18.244;2023-02-03T04:44:04;20.10;;;6.80;;
57327;SDS011;43162;51.040;18.244;2023-02-03T04:46:30;18.60;;;7.20;;
57327;SDS011;43162;51.040;18.244;2023-02-03T04:48:56;21.90;;;8.30;;
57327;SDS011;43162;51.040;18.244;2023-02-03T04:51:21;21.60;;;9.20;;
57327;SDS011;43162;51.040;18.244;2023-02-03T04:53:47;19.00;;;7.80;;
57327;SDS011;43162;51.040;18.244;2023-02-03T04:56:12;15.30;;;6.80;;
57327;SDS011;43162;51.040;18.244;2023-02-03T04:58:40;21.00;;;8.10;;
57327;SDS011;43162;51.040;18.244;2023-02-03T05:01:06;22.80;;;7.70;;
57327;SDS011;43162;51.040;18.244;2023-02-03T05:03:33;30.90;;;12.50;;
57327;SDS011;43162;51.040;18.244;2023-02-03T05:05:59;32.30;;;13.40;;
57327;SDS011;43162;51.040;18.244;2023-02-03T05:08:25;43.90;;;18.90;;
57327;SDS011;43162;51.040;18.244;2023-02-03T05:10:50;43.40;;;19.70;;
57327;SDS011;43162;51.040;18.244;2023-02-03T05:13:15;48.00;;;19.10;;
57327;SDS011;43162;51.040;18.244;2023-02-03T05:15:41;35.20;;;14.40;;
57327;SDS011;43162;51.040;18.244;2023-02-03T05:18:07;31.80;;;12.70;;
57327;SDS011;43162;51.040;18.244;2023-02-03T05:20:32;32.80;;;13.80;;
57327;SDS011;43162;51.040;18.244;2023-02-03T05:22:58;29.00;;;11.80;;
57327;SDS011;43162;51.040;18.244;2023-02-03T05:25:23;40.40;;;14.50;;
57327;SDS011;43162;51.040;18.244;2023-02-03T05:27:49;40.60;;;15.50;;
57327;SDS011;43162;51.040;18.244;2023-02-03T05:30:14;47.20;;;16.90;;
57327;SDS011;43162;51.040;18.244;2023-02-03T05:32:40;49.50;;;16.80;;
57327;SDS011;43162;51.040;18.244;2023-02-03T05:35:05;73.30;;;26.00;;
57327;SDS011;43162;51.040;18.244;2023-02-03T05:37:31;43.70;;;17.70;;
57327;SDS011;43162;51.040;18.244;2023-02-03T05:39:56;35.90;;;11.50;;
57327;SDS011;43162;51.040;18.244;2023-02-03T05:42:48;19.90;;;8.10;;
57327;SDS011;43162;51.040;18.244;2023-02-03T05:45:14;21.00;;;8.10;;
57327;SDS011;43162;51.040;18.244;2023-02-03T05:47:40;21.20;;;8.00;;
57327;SDS011;43162;51.040;18.244;2023-02-03T05:50:05;42.50;;;13.10;;
57327;SDS011;43162;51.040;18.244;2023-02-03T05:52:31;38.60;;;13.20;;
57327;SDS011;43162;51.040;18.244;2023-02-03T05:54:56;33.10;;;13.80;;
57327;SDS011;43162;51.040;18.244;2023-02-03T05:57:22;39.10;;;12.70;;
57327;SDS011;43162;51.040;18.244;2023-02-03T05:59:47;35.80;;;12.70;;
57327;SDS011;43162;51.040;18.244;2023-02-03T06:02:14;38.10;;;11.10;;
57327;SDS011;43162;51.040;18.244;2023-02-03T06:04:39;33.90;;;11.20;;
57327;SDS011;43162;51.040;18.244;2023-02-03T06:07:05;28.90;;;10.10;;
57327;SDS011;43162;51.040;18.244;2023-02-03T06:09:31;27.10;;;10.70;;
57327;SDS011;43162;51.040;18.244;2023-02-03T06:11:57;20.90;;;9.60;;
57327;SDS011;43162;51.040;18.244;2023-02-03T06:14:23;26.60;;;11.30;;
57327;SDS011;43162;51.040;18.244;2023-02-03T06:16:48;18.70;;;9.20;;
57327;SDS011;43162;51.040;18.244;2023-02-03T06:19:13;20.10;;;6.70;;
57327;SDS011;43162;51.040;18.244;2023-02-03T06:21:39;25.10;;;7.60;;
57327;SDS011;43162;51.040;18.244;2023-02-03T06:24:05;15.70;;;7.00;;
57327;SDS011;43162;51.040;18.244;2023-02-03T06:26:31;21.60;;;7.00;;
57327;SDS011;43162;51.040;18.244;2023-02-03T06:28:56;22.80;;;8.20;;
57327;SDS011;43162;51.040;18.244;2023-02-03T06:31:21;26.30;;;8.70;;
57327;SDS011;43162;51.040;18.244;2023-02-03T06:33:47;27.70;;;11.00;;
57327;SDS011;43162;51.040;18.244;2023-02-03T06:36:13;24.10;;;9.20;;
57327;SDS011;43162;51.040;18.244;2023-02-03T06:38:39;15.10;;;7.90;;
57327;SDS011;43162;51.040;18.244;2023-02-03T06:41:05;17.40;;;7.00;;
57327;SDS011;43162;51.040;18.244;2023-02-03T06:43:31;17.20;;;5.80;;
57327;SDS011;43162;51.040;18.244;2023-02-03T06:45:56;15.70;;;5.40;;
57327;SDS011;43162;51.040;18.244;2023-02-03T06:48:22;17.80;;;6.60;;
57327;SDS011;43162;51.040;18.244;2023-02-03T06:50:48;21.00;;;6.50;;
57327;SDS011;43162;51.040;18.244;2023-02-03T06:53:13;18.80;;;5.60;;
57327;SDS011;43162;51.040;18.244;2023-02-03T06:55:39;13.50;;;5.40;;
57327;SDS011;43162;51.040;18.244;2023-02-03T06:58:04;21.70;;;6.60;;
57327;SDS011;43162;51.040;18.244;2023-02-03T07:00:30;11.90;;;5.50;;
57327;SDS011;43162;51.040;18.244;2023-02-03T07:02:56;9.50;;;3.80;;
57327;SDS011;43162;51.040;18.244;2023-02-03T07:05:22;10.00;;;4.70;;
57327;SDS011;43162;51.040;18.244;2023-02-03T07:07:49;11.30;;;5.50;;
57327;SDS011;43162;51.040;18.244;2023-02-03T07:10:15;11.10;;;5.00;;
57327;SDS011;43162;51.040;18.244;2023-02-03T07:12:40;17.40;;;4.10;;
57327;SDS011;43162;51.040;18.244;2023-02-03T07:15:06;13.80;;;5.50;;
57327;SDS011;43162;51.040;18.244;2023-02-03T07:17:31;10.20;;;3.60;;
57327;SDS011;43162;51.040;18.244;2023-02-03T07:19:57;14.80;;;5.10;;
57327;SDS011;43162;51.040;18.244;2023-02-03T07:22:22;12.70;;;4.30;;
57327;SDS011;43162;51.040;18.244;2023-02-03T07:24:48;11.70;;;4.20;;
57327;SDS011;43162;51.040;18.244;2023-02-03T07:27:13;20.00;;;7.90;;
57327;SDS011;43162;51.040;18.244;2023-02-03T07:29:39;82.30;;;21.80;;
57327;SDS011;43162;51.040;18.244;2023-02-03T07:32:05;11.20;;;5.20;;
57327;SDS011;43162;51.040;18.244;2023-02-03T07:34:30;8.10;;;4.20;;
57327;SDS011;43162;51.040;18.244;2023-02-03T07:36:56;7.60;;;3.20;;
57327;SDS011;43162;51.040;18.244;2023-02-03T07:39:21;12.50;;;4.30;;
57327;SDS011;43162;51.040;18.244;2023-02-03T07:41:47;7.90;;;2.80;;
57327;SDS011;43162;51.040;18.244;2023-02-03T07:44:13;4.60;;;2.60;;
57327;SDS011;43162;51.040;18.244;2023-02-03T07:46:38;11.40;;;3.70;;
57327;SDS011;43162;51.040;18.244;2023-02-03T07:49:12;8.00;;;3.00;;
57327;SDS011;43162;51.040;18.244;2023-02-03T07:51:37;28.30;;;7.20;;
57327;SDS011;43162;51.040;18.244;2023-02-03T07:54:03;23.40;;;6.30;;
57327;SDS011;43162;51.040;18.244;2023-02-03T07:56:28;119.30;;;25.60;;
57327;SDS011;43162;51.040;18.244;2023-02-03T07:58:57;132.50;;;30.10;;
57327;SDS011;43162;51.040;18.244;2023-02-03T08:01:22;158.60;;;33.60;;
57327;SDS011;43162;51.040;18.244;2023-02-03T08:03:48;97.70;;;20.20;;
57327;SDS011;43162;51.040;18.244;2023-02-03T08:06:13;54.30;;;12.30;;
57327;SDS011;43162;51.040;18.244;2023-02-03T08:08:39;59.30;;;14.10;;
57327;SDS011;43162;51.040;18.244;2023-02-03T08:11:05;70.20;;;18.60;;
57327;SDS011;43162;51.040;18.244;2023-02-03T08:13:31;64.10;;;16.50;;
57327;SDS011;43162;51.040;18.244;2023-02-03T08:15:56;82.90;;;18.50;;
57327;SDS011;43162;51.040;18.244;2023-02-03T08:18:22;72.00;;;14.90;;
57327;SDS011;43162;51.040;18.244;2023-02-03T08:20:48;28.40;;;7.80;;
57327;SDS011;43162;51.040;18.244;2023-02-03T08:23:13;28.00;;;9.60;;
57327;SDS011;43162;51.040;18.244;2023-02-03T08:25:39;30.20;;;8.70;;
57327;SDS011;43162;51.040;18.244;2023-02-03T08:28:04;28.20;;;9.00;;
57327;SDS011;43162;51.040;18.244;2023-02-03T08:30:29;25.60;;;9.10;;
57327;SDS011;43162;51.040;18.244;2023-02-03T08:32:56;42.90;;;16.80;;
57327;SDS011;43162;51.040;18.244;2023-02-03T08:35:21;56.60;;;15.70;;
57327;SDS011;43162;51.040;18.244;2023-02-03T08:37:47;46.80;;;10.40;;
57327;SDS011;43162;51.040;18.244;2023-02-03T08:40:12;26.10;;;8.40;;
57327;SDS011;43162;51.040;18.244;2023-02-03T08:42:38;35.60;;;9.00;;
57327;SDS011;43162;51.040;18.244;2023-02-03T08:45:03;33.00;;;10.50;;
57327;SDS011;43162;51.040;18.244;2023-02-03T08:47:30;26.50;;;8.50;;
57327;SDS011;43162;51.040;18.244;2023-02-03T08:49:55;22.90;;;8.30;;
57327;SDS011;43162;51.040;18.244;2023-02-03T08:52:22;22.90;;;8.30;;
57327;SDS011;43162;51.040;18.244;2023-02-03T08:54:47;19.80;;;7.40;;
57327;SDS011;43162;51.040;18.244;2023-02-03T08:57:13;14.20;;;6.30;;
57327;SDS011;43162;51.040;18.244;2023-02-03T08:59:40;9.90;;;5.10;;
57327;SDS011;43162;51.040;18.244;2023-02-03T09:02:07;10.60;;;5.00;;
57327;SDS011;43162;51.040;18.244;2023-02-03T09:04:34;11.60;;;5.60;;
57327;SDS011;43162;51.040;18.244;2023-02-03T09:07:00;8.70;;;4.80;;
57327;SDS011;43162;51.040;18.244;2023-02-03T09:09:27;10.90;;;5.50;;
57327;SDS011;43162;51.040;18.244;2023-02-03T09:11:53;12.00;;;5.00;;
57327;SDS011;43162;51.040;18.244;2023-02-03T09:14:24;7.60;;;4.50;;
57327;SDS011;43162;51.040;18.244;2023-02-03T09:16:51;7.90;;;4.40;;
57327;SDS011;43162;51.040;18.244;2023-02-03T09:19:17;14.10;;;6.80;;
57327;SDS011;43162;51.040;18.244;2023-02-03T09:21:43;13.00;;;7.00;;
57327;SDS011;43162;51.040;18.244;2023-02-03T09:24:08;31.20;;;7.50;;
57327;SDS011;43162;51.040;18.244;2023-02-03T09:26:34;38.90;;;9.00;;
57327;SDS011;43162;51.040;18.244;2023-02-03T09:29:00;89.90;;;17.30;;
57327;SDS011;43162;51.040;18.244;2023-02-03T09:31:25;78.90;;;17.70;;
57327;SDS011;43162;51.040;18.244;2023-02-03T09:33:51;19.50;;;6.60;;
57327;SDS011;43162;51.040;18.244;2023-02-03T09:36:16;13.30;;;6.30;;
57327;SDS011;43162;51.040;18.244;2023-02-03T09:38:42;20.70;;;8.50;;
57327;SDS011;43162;51.040;18.244;2023-02-03T09:43:46;38.60;;;16.60;;
57327;SDS011;43162;51.040;18.244;2023-02-03T09:46:27;28.70;;;13.40;;
57327;SDS011;43162;51.040;18.244;2023-02-03T09:49:14;27.50;;;10.20;;
57327;SDS011;43162;51.040;18.244;2023-02-03T09:51:49;27.60;;;12.50;;
57327;SDS011;43162;51.040;18.244;2023-02-03T09:54:18;16.90;;;7.60;;
57327;SDS011;43162;51.040;18.244;2023-02-03T09:56:45;15.00;;;7.20;;
57327;SDS011;43162;51.040;18.244;2023-02-03T09:59:17;13.60;;;6.10;;
57327;SDS011;43162;51.040;18.244;2023-02-03T10:02:06;13.50;;;7.40;;
57327;SDS011;43162;51.040;18.244;2023-02-03T10:04:41;12.50;;;5.80;;
57327;SDS011;43162;51.040;18.244;2023-02-03T10:12:10;15.70;;;7.90;;
57327;SDS011;43162;51.040;18.244;2023-02-03T10:19:37;20.60;;;10.50;;
57327;SDS011;43162;51.040;18.244;2023-02-03T10:22:03;21.30;;;10.30;;
57327;SDS011;43162;51.040;18.244;2023-02-03T10:24:49;22.80;;;10.30;;
57327;SDS011;43162;51.040;18.244;2023-02-03T10:27:18;13.90;;;7.60;;
57327;SDS011;43162;51.040;18.244;2023-02-03T10:29:44;13.00;;;6.70;;
57327;SDS011;43162;51.040;18.244;2023-02-03T10:32:12;10.70;;;5.10;;
57327;SDS011;43162;51.040;18.244;2023-02-03T10:34:38;14.50;;;7.20;;
57327;SDS011;43162;51.040;18.244;2023-02-03T10:37:21;13.40;;;7.90;;
57327;SDS011;43162;51.040;18.244;2023-02-03T10:39:48;13.30;;;6.70;;
57327;SDS011;43162;51.040;18.244;2023-02-03T10:42:14;13.70;;;8.10;;
57327;SDS011;43162;51.040;18.244;2023-02-03T10:44:41;9.30;;;5.60;;
57327;SDS011;43162;51.040;18.244;2023-02-03T10:47:19;14.30;;;8.90;;
57327;SDS011;43162;51.040;18.244;2023-02-03T10:49:48;12.90;;;6.60;;
57327;SDS011;43162;51.040;18.244;2023-02-03T10:52:25;13.70;;;6.60;;
57327;SDS011;43162;51.040;18.244;2023-02-03T10:54:52;15.40;;;8.00;;
57327;SDS011;43162;51.040;18.244;2023-02-03T10:57:17;9.60;;;6.10;;
57327;SDS011;43162;51.040;18.244;2023-02-03T10:59:44;9.60;;;6.50;;
57327;SDS011;43162;51.040;18.244;2023-02-03T11:02:23;10.80;;;6.60;;
57327;SDS011;43162;51.040;18.244;2023-02-03T11:12:14;10.50;;;6.20;;
57327;SDS011;43162;51.040;18.244;2023-02-03T11:14:43;12.20;;;6.30;;
57327;SDS011;43162;51.040;18.244;2023-02-03T11:17:20;13.10;;;6.10;;
57327;SDS011;43162;51.040;18.244;2023-02-03T11:19:49;12.60;;;5.10;;
57327;SDS011;43162;51.040;18.244;2023-02-03T11:25:19;13.30;;;6.20;;
57327;SDS011;43162;51.040;18.244;2023-02-03T11:27:46;11.50;;;6.20;;
57327;SDS011;43162;51.040;18.244;2023-02-03T11:30:16;13.90;;;8.20;;
57327;SDS011;43162;51.040;18.244;2023-02-03T11:32:43;9.20;;;6.00;;
57327;SDS011;43162;51.040;18.244;2023-02-03T11:35:17;9.10;;;6.70;;
57327;SDS011;43162;51.040;18.244;2023-02-03T11:37:44;13.20;;;8.10;;
57327;SDS011;43162;51.040;18.244;2023-02-03T11:40:12;16.20;;;8.40;;
57327;SDS011;43162;51.040;18.244;2023-02-03T11:45:24;13.10;;;7.70;;
57327;SDS011;43162;51.040;18.244;2023-02-03T11:47:54;13.10;;;8.60;;
57327;SDS011;43162;51.040;18.244;2023-02-03T12:11:23;8.40;;;4.80;;
57327;SDS011;43162;51.040;18.244;2023-02-03T12:13:59;6.30;;;4.20;;
57327;SDS011;43162;51.040;18.244;2023-02-03T12:16:48;5.40;;;3.80;;
57327;SDS011;43162;51.040;18.244;2023-02-03T12:22:07;7.70;;;4.90;;
57327;SDS011;43162;51.040;18.244;2023-02-03T12:29:57;6.70;;;4.20;;
57327;SDS011;43162;51.040;18.244;2023-02-03T12:34:55;10.90;;;4.80;;
57327;SDS011;43162;51.040;18.244;2023-02-03T12:37:25;10.40;;;5.00;;
57327;SDS011;43162;51.040;18.244;2023-02-03T12:40:03;7.40;;;4.30;;
57327;SDS011;43162;51.040;18.244;2023-02-03T12:42:34;14.40;;;6.40;;
57327;SDS011;43162;51.040;18.244;2023-02-03T12:45:16;19.10;;;8.70;;
57327;SDS011;43162;51.040;18.244;2023-02-03T12:47:50;14.10;;;8.70;;
57327;SDS011;43162;51.040;18.244;2023-02-03T12:55:36;17.10;;;10.10;;
57327;SDS011;43162;51.040;18.244;2023-02-03T12:58:09;15.00;;;8.10;;
57327;SDS011;43162;51.040;18.244;2023-02-03T13:08:37;15.60;;;8.10;;
57327;SDS011;43162;51.040;18.244;2023-02-03T13:13:59;17.20;;;8.30;;
57327;SDS011;43162;51.040;18.244;2023-02-03T13:16:24;15.80;;;9.20;;
57327;SDS011;43162;51.040;18.244;2023-02-03T13:18:55;15.20;;;8.10;;
57327;SDS011;43162;51.040;18.244;2023-02-03T13:21:22;21.70;;;8.30;;
57327;SDS011;43162;51.040;18.244;2023-02-03T13:23:48;9.70;;;5.00;;
57327;SDS011;43162;51.040;18.244;2023-02-03T13:26:27;9.30;;;5.00;;
57327;SDS011;43162;51.040;18.244;2023-02-03T13:41:54;5.80;;;2.80;;
57327;SDS011;43162;51.040;18.244;2023-02-03T13:44:22;4.60;;;2.60;;
57327;SDS011;43162;51.040;18.244;2023-02-03T13:46:51;6.10;;;2.50;;
57327;SDS011;43162;51.040;18.244;2023-02-03T13:49:21;3.90;;;2.40;;
57327;SDS011;43162;51.040;18.244;2023-02-03T13:51:48;4.40;;;2.20;;
57327;SDS011;43162;51.040;18.244;2023-02-03T13:54:36;3.10;;;2.00;;
57327;SDS011;43162;51.040;18.244;2023-02-03T13:57:01;4.90;;;2.10;;
57327;SDS011;43162;51.040;18.244;2023-02-03T14:02:28;3.60;;;1.90;;
57327;SDS011;43162;51.040;18.244;2023-02-03T14:12:36;3.50;;;1.50;;
57327;SDS011;43162;51.040;18.244;2023-02-03T14:22:52;1.30;;;0.80;;
57327;SDS011;43162;51.040;18.244;2023-02-03T14:25:18;3.40;;;1.00;;
57327;SDS011;43162;51.040;18.244;2023-02-03T14:27:45;2.70;;;1.10;;
57327;SDS011;43162;51.040;18.244;2023-02-03T14:30:13;2.60;;;1.30;;
57327;SDS011;43162;51.040;18.244;2023-02-03T14:35:16;4.00;;;1.60;;
57327;SDS011;43162;51.040;18.244;2023-02-03T14:37:49;2.00;;;1.10;;
57327;SDS011;43162;51.040;18.244;2023-02-03T14:45:15;1.70;;;0.80;;
57327;SDS011;43162;51.040;18.244;2023-02-03T14:50:16;2.50;;;1.10;;
57327;SDS011;43162;51.040;18.244;2023-02-03T14:58:22;2.50;;;1.50;;
57327;SDS011;43162;51.040;18.244;2023-02-03T15:00:50;3.50;;;1.40;;
57327;SDS011;43162;51.040;18.244;2023-02-03T15:03:19;1.30;;;1.10;;
57327;SDS011;43162;51.040;18.244;2023-02-03T15:08:35;4.70;;;1.00;;
57327;SDS011;43162;51.040;18.244;2023-02-03T15:13:45;3.40;;;1.40;;
57327;SDS011;43162;51.040;18.244;2023-02-03T15:16:12;1.90;;;1.40;;
57327;SDS011;43162;51.040;18.244;2023-02-03T15:18:39;1.50;;;1.10;;
57327;SDS011;43162;51.040;18.244;2023-02-03T15:21:05;4.10;;;1.70;;
57327;SDS011;43162;51.040;18.244;2023-02-03T15:23:41;3.60;;;1.20;;
57327;SDS011;43162;51.040;18.244;2023-02-03T15:28:38;3.40;;;1.20;;
57327;SDS011;43162;51.040;18.244;2023-02-03T15:31:05;4.20;;;1.40;;
57327;SDS011;43162;51.040;18.244;2023-02-03T15:33:33;19.10;;;1.10;;
57327;SDS011;43162;51.040;18.244;2023-02-03T15:36:05;6.30;;;1.00;;
57327;SDS011;43162;51.040;18.244;2023-02-03T15:38:36;2.80;;;1.10;;
57327;SDS011;43162;51.040;18.244;2023-02-03T15:41:03;2.50;;;1.20;;
57327;SDS011;43162;51.040;18.244;2023-02-03T15:43:35;5.10;;;1.00;;
57327;SDS011;43162;51.040;18.244;2023-02-03T15:53:34;7.40;;;2.00;;
57327;SDS011;43162;51.040;18.244;2023-02-03T15:56:00;11.10;;;1.70;;
57327;SDS011;43162;51.040;18.244;2023-02-03T15:58:38;2.30;;;0.80;;
57327;SDS011;43162;51.040;18.244;2023-02-03T16:01:07;4.10;;;1.00;;
57327;SDS011;43162;51.040;18.244;2023-02-03T16:06:10;16.40;;;1.30;;
57327;SDS011;43162;51.040;18.244;2023-02-03T16:08:46;7.60;;;2.10;;
57327;SDS011;43162;51.040;18.244;2023-02-03T16:14:08;4.20;;;1.50;;
57327;SDS011;43162;51.040;18.244;2023-02-03T16:19:13;10.80;;;1.60;;
57327;SDS011;43162;51.040;18.244;2023-02-03T16:26:54;4.60;;;1.40;;
57327;SDS011;43162;51.040;18.244;2023-02-03T16:29:20;4.60;;;1.50;;
57327;SDS011;43162;51.040;18.244;2023-02-03T16:32:13;6.50;;;2.00;;
57327;SDS011;43162;51.040;18.244;2023-02-03T16:34:59;6.50;;;2.50;;
57327;SDS011;43162;51.040;18.244;2023-02-03T16:37:44;6.40;;;1.50;;
57327;SDS011;43162;51.040;18.244;2023-02-03T16:40:27;5.90;;;1.60;;
57327;SDS011;43162;51.040;18.244;2023-02-03T16:43:12;9.90;;;2.40;;
57327;SDS011;43162;51.040;18.244;2023-02-03T16:45:58;7.40;;;1.20;;
57327;SDS011;43162;51.040;18.244;2023-02-03T16:48:42;7.00;;;2.10;;
57327;SDS011;43162;51.040;18.244;2023-02-03T16:51:28;6.10;;;1.20;;
57327;SDS011;43162;51.040;18.244;2023-02-03T16:53:56;5.90;;;1.40;;
57327;SDS011;43162;51.040;18.244;2023-02-03T16:56:22;8.70;;;1.70;;
57327;SDS011;43162;51.040;18.244;2023-02-03T16:58:48;3.40;;;1.70;;
57327;SDS011;43162;51.040;18.244;2023-02-03T17:01:13;6.40;;;1.50;;
57327;SDS011;43162;51.040;18.244;2023-02-03T17:03:39;2.40;;;0.90;;
57327;SDS011;43162;51.040;18.244;2023-02-03T17:06:06;5.80;;;1.50;;
57327;SDS011;43162;51.040;18.244;2023-02-03T17:08:32;8.40;;;2.00;;
57327;SDS011;43162;51.040;18.244;2023-02-03T17:11:01;6.20;;;1.10;;
57327;SDS011;43162;51.040;18.244;2023-02-03T17:13:27;3.50;;;1.70;;
57327;SDS011;43162;51.040;18.244;2023-02-03T17:15:53;4.30;;;0.90;;
57327;SDS011;43162;51.040;18.244;2023-02-03T17:18:19;11.00;;;1.50;;
57327;SDS011;43162;51.040;18.244;2023-02-03T17:20:44;10.40;;;1.50;;
57327;SDS011;43162;51.040;18.244;2023-02-03T17:23:11;4.80;;;1.20;;
57327;SDS011;43162;51.040;18.244;2023-02-03T17:25:37;6.20;;;1.50;;
57327;SDS011;43162;51.040;18.244;2023-02-03T17:28:04;7.70;;;1.50;;
57327;SDS011;43162;51.040;18.244;2023-02-03T17:30:30;2.30;;;0.90;;